Raymond, Pennsylvania
Current Conditions -  °F | °C
As of 4:56 PM on Sunday 23 Nov 2014 (Local Time) from KELZ Reporting Station
Clear Clear  
Wind Chill: 50°   Ceiling: Unl
Heat Index: 50°   Visibility: 10mi
Dew Point: 33°   Wind: 13mph
Humidity: 52%   Direction: 160°SSE
Pressure: 29.94"   Gusts: NA
Location:  41.915°N, 77.8855°W
Report Text: KELZ 232156Z AUTO 16011KT 10SM CLR 10/01 A2994 RMK AO2 SLP146 T01000006
Loading
Personal Weather Stations






























Interactive Weather Map New forecast layout! Learn more

10-Day Weather Forecast

Advertisements
Track Severe Weather on mobile